createdAt,value
2023-01-19T00:00:07.636Z,28.12
2023-01-19T00:01:07.571Z,28.45
2023-01-19T00:02:07.526Z,28.32
2023-01-19T00:03:07.554Z,27.08
2023-01-19T00:04:07.486Z,28.54
2023-01-19T00:05:07.462Z,29.20
2023-01-19T00:06:07.530Z,27.21
2023-01-19T00:07:07.456Z,26.36
2023-01-19T00:54:43.034Z,25.00
2023-01-19T00:55:43.992Z,25.00
2023-01-19T00:56:43.986Z,25.00
2023-01-19T00:57:43.960Z,25.00
2023-01-19T00:58:43.941Z,25.00
2023-01-19T00:59:43.939Z,25.00
2023-01-19T01:00:43.940Z,0.00
2023-01-19T01:01:45.866Z,0.00
2023-01-19T01:02:44.206Z,0.00
2023-01-19T01:03:43.874Z,0.00
2023-01-19T01:04:43.866Z,0.00
2023-01-19T01:05:43.847Z,0.00
2023-01-19T01:06:43.838Z,14.27
2023-01-19T01:07:43.816Z,25.28
2023-01-19T01:08:43.801Z,25.00
2023-01-19T01:09:43.790Z,25.00
2023-01-19T01:10:43.806Z,25.00
2023-01-19T01:11:43.755Z,27.73
2023-01-19T01:12:57.740Z,25.35
2023-01-19T01:13:43.720Z,25.65
2023-01-19T01:14:43.700Z,25.18
2023-01-19T01:15:43.700Z,19.16
2023-01-19T01:16:43.744Z,14.92
2023-01-19T01:17:43.666Z,7.10
2023-01-19T01:18:43.631Z,1.26
2023-01-19T01:19:43.609Z,25.39
2023-01-19T01:20:43.593Z,26.27
2023-01-19T01:21:43.578Z,26.73
2023-01-19T01:22:43.569Z,28.51
2023-01-19T01:23:43.556Z,27.49
2023-01-19T01:24:43.544Z,28.63
2023-01-19T01:25:43.530Z,25.24
2023-01-19T01:26:43.546Z,27.90
2023-01-19T01:27:43.498Z,25.00
2023-01-19T01:28:43.533Z,25.92
2023-01-19T01:29:43.450Z,25.00
2023-01-19T01:30:43.580Z,25.00
2023-01-19T01:31:43.460Z,26.93
2023-01-19T01:32:43.422Z,26.47
2023-01-19T01:33:43.355Z,28.48
2023-01-19T01:34:43.335Z,26.11
2023-01-19T01:35:43.302Z,28.56
2023-01-19T01:36:43.275Z,25.39
2023-01-19T01:37:43.252Z,26.03
2023-01-19T01:38:43.225Z,26.28
2023-01-19T01:39:43.202Z,26.40
2023-01-19T01:40:43.171Z,26.21
2023-01-19T01:41:43.153Z,25.64
2023-01-19T01:42:43.233Z,25.02
2023-01-19T01:43:43.112Z,25.51
2023-01-19T01:44:43.087Z,25.80
2023-01-19T01:45:43.086Z,25.36
2023-01-19T01:46:43.049Z,25.95
2023-01-19T01:47:43.015Z,25.08
2023-01-19T01:48:43.001Z,26.49
2023-01-19T01:49:42.978Z,26.31
2023-01-19T01:50:42.957Z,29.03
2023-01-19T01:51:42.935Z,25.00
2023-01-19T01:52:42.918Z,27.54
2023-01-19T01:53:42.898Z,27.93
2023-01-19T01:54:42.872Z,28.74
2023-01-19T01:55:42.862Z,29.06
2023-01-19T01:56:42.841Z,28.55
2023-01-19T01:57:42.819Z,28.25
2023-01-19T01:58:42.834Z,28.34
2023-01-19T01:59:42.791Z,30.96
2023-01-19T02:00:42.840Z,27.84
2023-01-19T02:01:42.861Z,28.07
2023-01-19T02:02:42.738Z,28.09
2023-01-19T02:03:42.731Z,27.36
2023-01-19T02:04:42.711Z,28.69
2023-01-19T02:05:42.688Z,25.71
2023-01-19T02:06:42.674Z,25.00
2023-01-19T02:07:42.660Z,28.21
2023-01-19T02:08:42.650Z,27.78
2023-01-19T02:09:42.626Z,27.87
2023-01-19T02:10:42.603Z,27.05
2023-01-19T02:11:42.596Z,27.85
2023-01-19T02:12:42.584Z,27.32
2023-01-19T02:13:42.555Z,29.70
2023-01-19T02:14:42.569Z,32.69
2023-01-19T02:15:42.516Z,29.12
2023-01-19T02:16:42.561Z,31.90
2023-01-19T02:17:42.475Z,28.60
2023-01-19T02:18:42.461Z,26.42
2023-01-19T02:19:42.432Z,29.89
2023-01-19T02:20:42.422Z,28.26
2023-01-19T02:21:42.406Z,27.52
2023-01-19T02:22:42.389Z,30.13
2023-01-19T02:23:42.401Z,29.64
2023-01-19T02:24:42.360Z,27.40
2023-01-19T02:25:42.348Z,27.15
2023-01-19T02:26:42.337Z,27.52
2023-01-19T02:27:42.333Z,28.10
2023-01-19T02:28:42.322Z,27.08
2023-01-19T02:29:42.301Z,28.62
2023-01-19T02:30:42.359Z,28.77
2023-01-19T02:31:42.266Z,28.34
2023-01-19T02:32:42.253Z,26.19
2023-01-19T02:33:42.237Z,28.69
2023-01-19T02:34:42.238Z,31.38
2023-01-19T02:35:42.221Z,29.92
2023-01-19T02:36:42.199Z,26.87
2023-01-19T02:37:42.188Z,30.67
2023-01-19T02:38:42.172Z,27.72
2023-01-19T02:39:42.169Z,29.68
2023-01-19T02:40:42.183Z,29.57
2023-01-19T02:41:42.139Z,30.05
2023-01-19T02:42:42.114Z,28.81
2023-01-19T02:43:42.097Z,27.47
2023-01-19T02:44:42.084Z,29.15
2023-01-19T02:45:42.112Z,28.23
2023-01-19T02:46:42.133Z,28.36
2023-01-19T02:47:42.039Z,29.30
2023-01-19T02:48:42.033Z,28.43
2023-01-19T02:49:42.022Z,27.85
2023-01-19T02:50:42.014Z,30.31
2023-01-19T02:51:42.000Z,25.28
2023-01-19T02:52:41.984Z,28.61
2023-01-19T02:53:41.970Z,30.68
2023-01-19T02:54:41.973Z,28.88
2023-01-19T02:55:41.940Z,30.61
2023-01-19T02:56:41.934Z,27.61
2023-01-19T02:57:41.922Z,26.42
2023-01-19T02:58:41.915Z,30.78
2023-01-19T02:59:41.922Z,27.94
2023-01-19T03:00:41.891Z,29.09
2023-01-19T03:01:41.988Z,26.42
2023-01-19T03:02:41.906Z,27.37
2023-01-19T03:03:41.861Z,27.91
2023-01-19T03:04:41.844Z,26.82
2023-01-19T03:05:41.828Z,26.71
2023-01-19T03:06:41.813Z,28.23
2023-01-19T03:07:41.820Z,29.18
2023-01-19T03:08:41.798Z,29.20
2023-01-19T03:09:41.781Z,30.62
2023-01-19T03:10:41.760Z,28.94
2023-01-19T03:11:41.754Z,29.68
2023-01-19T03:12:41.733Z,28.72
2023-01-19T03:13:41.743Z,28.11
2023-01-19T03:14:41.707Z,27.98
2023-01-19T03:15:41.739Z,27.98
2023-01-19T03:16:42.192Z,29.73
2023-01-19T03:17:41.647Z,28.78
2023-01-19T03:18:41.666Z,29.10
2023-01-19T03:19:41.636Z,29.81
2023-01-19T03:20:41.608Z,27.96
2023-01-19T03:21:41.595Z,28.15
2023-01-19T03:22:41.581Z,28.87
2023-01-19T03:23:41.559Z,28.16
2023-01-19T03:24:41.544Z,26.42
2023-01-19T03:25:41.518Z,27.55
2023-01-19T03:26:41.510Z,28.43
2023-01-19T03:27:41.481Z,28.74
2023-01-19T03:28:41.460Z,30.22
2023-01-19T03:29:41.448Z,25.81
2023-01-19T03:30:41.500Z,27.51
2023-01-19T03:31:41.412Z,28.47
2023-01-19T03:32:41.406Z,27.92
2023-01-19T03:33:41.384Z,29.12
2023-01-19T03:34:41.382Z,27.73
2023-01-19T03:35:41.343Z,28.00
2023-01-19T03:36:41.322Z,26.46
2023-01-19T03:37:41.309Z,31.10
2023-01-19T03:38:41.292Z,30.04
2023-01-19T03:39:41.308Z,26.97
2023-01-19T03:40:41.242Z,28.75
2023-01-19T03:41:41.210Z,29.25
2023-01-19T03:42:41.191Z,29.10
2023-01-19T03:43:41.179Z,29.84
2023-01-19T03:44:41.152Z,27.55
2023-01-19T03:45:41.123Z,28.64
2023-01-19T03:46:41.108Z,29.46
2023-01-19T03:47:41.090Z,30.35
2023-01-19T03:48:41.068Z,30.03
2023-01-19T03:49:41.072Z,29.59
2023-01-19T03:50:41.064Z,29.15
2023-01-19T03:51:41.006Z,30.23
2023-01-19T03:52:40.999Z,27.56
2023-01-19T03:53:40.974Z,27.17
2023-01-19T03:54:40.966Z,29.86
2023-01-19T03:55:40.923Z,28.17
2023-01-19T03:56:41.639Z,30.33
2023-01-19T03:57:40.890Z,33.44
2023-01-19T03:58:40.864Z,27.89
2023-01-19T03:59:40.845Z,30.92
2023-01-19T04:00:40.816Z,30.38
2023-01-19T04:01:40.968Z,30.01
2023-01-19T04:02:40.852Z,29.75
2023-01-19T04:03:40.757Z,29.69
2023-01-19T04:04:40.776Z,30.30
2023-01-19T04:05:40.719Z,28.41
2023-01-19T04:06:40.851Z,27.84
2023-01-19T04:07:40.729Z,27.98
2023-01-19T04:08:40.664Z,30.28
2023-01-19T04:09:40.639Z,30.12
2023-01-19T04:10:40.629Z,31.10
2023-01-19T04:11:40.623Z,31.63
2023-01-19T04:12:40.615Z,32.06
2023-01-19T04:13:40.595Z,31.19
2023-01-19T04:14:40.557Z,30.21
2023-01-19T04:15:40.599Z,30.14
2023-01-19T04:16:40.531Z,30.36
2023-01-19T04:17:40.511Z,29.95
2023-01-19T04:18:40.493Z,29.95
2023-01-19T04:19:40.516Z,27.79
2023-01-19T04:20:40.466Z,29.84
2023-01-19T04:21:40.446Z,29.15
2023-01-19T04:22:40.456Z,29.42
2023-01-19T04:23:40.421Z,29.78
2023-01-19T04:24:40.414Z,30.38
2023-01-19T04:25:40.420Z,28.74
2023-01-19T04:26:40.376Z,31.78
2023-01-19T04:27:40.368Z,29.74
2023-01-19T04:28:40.343Z,31.14
2023-01-19T04:29:40.332Z,28.44
2023-01-19T04:30:40.332Z,31.92
2023-01-19T04:31:40.300Z,30.84
2023-01-19T04:32:40.274Z,32.13
2023-01-19T04:33:40.258Z,29.63
2023-01-19T04:34:40.235Z,29.11
2023-01-19T04:35:40.221Z,31.99
2023-01-19T04:36:40.197Z,27.91
2023-01-19T04:37:40.184Z,30.12
2023-01-19T04:38:40.184Z,30.09
2023-01-19T04:39:40.144Z,28.07
2023-01-19T04:40:40.124Z,32.59
2023-01-19T04:41:40.112Z,29.76
2023-01-19T04:42:40.098Z,29.33
2023-01-19T04:43:40.084Z,32.91
2023-01-19T04:44:40.122Z,31.20
2023-01-19T04:45:40.069Z,30.94
2023-01-19T04:46:40.086Z,30.25
2023-01-19T04:47:40.024Z,30.78
2023-01-19T04:48:41.412Z,28.04
2023-01-19T04:49:39.997Z,28.34
2023-01-19T04:50:39.997Z,29.14
2023-01-19T04:51:39.961Z,29.87
2023-01-19T04:52:39.965Z,29.84
2023-01-19T04:53:39.943Z,32.07
2023-01-19T04:54:40.011Z,32.60
2023-01-19T04:55:39.900Z,28.86
2023-01-19T04:56:39.894Z,30.48
2023-01-19T04:57:39.881Z,31.64
2023-01-19T04:58:39.864Z,34.43
2023-01-19T04:59:39.839Z,33.65
2023-01-19T05:00:39.829Z,31.61
2023-01-19T05:01:39.899Z,33.30
2023-01-19T05:02:39.886Z,33.05
2023-01-19T05:03:39.809Z,29.40
2023-01-19T05:04:39.770Z,31.05
2023-01-19T05:05:39.746Z,31.68
2023-01-19T05:06:39.749Z,31.91
2023-01-19T05:07:39.719Z,31.85
2023-01-19T05:08:39.714Z,32.72
2023-01-19T05:09:39.694Z,32.99
2023-01-19T05:10:39.704Z,30.09
2023-01-19T05:11:39.653Z,30.73
2023-01-19T05:12:39.639Z,32.28
2023-01-19T05:13:39.638Z,31.02
2023-01-19T05:14:39.639Z,32.55
2023-01-19T05:15:39.618Z,32.25
2023-01-19T05:16:39.572Z,31.94
2023-01-19T05:17:39.562Z,30.09
2023-01-19T05:18:39.536Z,31.44
2023-01-19T05:19:39.525Z,33.62
2023-01-19T05:20:39.584Z,31.08
2023-01-19T05:21:39.501Z,30.61
2023-01-19T05:22:39.487Z,32.89
2023-01-19T05:23:39.458Z,33.41
2023-01-19T05:24:39.462Z,33.74
2023-01-19T05:25:39.439Z,30.79
2023-01-19T05:26:39.456Z,31.20
2023-01-19T05:27:39.407Z,30.51
2023-01-19T05:28:39.385Z,31.25
2023-01-19T05:29:39.377Z,31.41
2023-01-19T05:30:39.387Z,31.19
2023-01-19T05:31:39.434Z,33.02
2023-01-19T05:32:39.334Z,29.74
2023-01-19T05:33:39.319Z,32.04
2023-01-19T05:34:39.307Z,31.84
2023-01-19T05:35:39.296Z,31.34
2023-01-19T05:36:39.292Z,33.23
2023-01-19T05:37:39.266Z,30.41
2023-01-19T05:38:39.269Z,32.14
2023-01-19T05:39:39.245Z,33.97
2023-01-19T05:40:39.240Z,30.76
2023-01-19T05:41:39.228Z,31.53
2023-01-19T05:42:39.229Z,33.75
2023-01-19T05:43:39.188Z,34.24
2023-01-19T05:44:39.172Z,31.33
2023-01-19T05:45:39.159Z,33.79
2023-01-19T05:46:39.221Z,32.98
2023-01-19T05:47:39.143Z,31.72
2023-01-19T05:48:39.135Z,29.72
2023-01-19T05:49:39.121Z,34.46
2023-01-19T05:50:39.098Z,32.85
2023-01-19T05:51:39.085Z,33.29
2023-01-19T05:52:39.074Z,30.57
2023-01-19T05:53:39.065Z,31.44
2023-01-19T05:54:39.038Z,32.21
2023-01-19T05:55:39.028Z,31.82
2023-01-19T05:56:39.005Z,33.19
2023-01-19T05:57:38.989Z,33.17
2023-01-19T05:58:39.073Z,32.54
2023-01-19T05:59:38.949Z,32.44
2023-01-19T06:00:38.936Z,33.51
2023-01-19T06:01:40.314Z,34.93
2023-01-19T06:02:38.961Z,35.86
2023-01-19T06:03:38.944Z,34.17
2023-01-19T06:04:38.911Z,32.02
2023-01-19T06:05:38.882Z,31.04
2023-01-19T06:06:38.865Z,34.21
2023-01-19T06:07:39.687Z,34.36
2023-01-19T06:08:38.810Z,33.38
2023-01-19T06:09:38.795Z,32.17
2023-01-19T06:10:38.770Z,32.17
2023-01-19T06:11:38.749Z,32.34
2023-01-19T06:12:38.725Z,32.52
2023-01-19T06:13:40.673Z,32.47
2023-01-19T06:14:38.708Z,34.60
2023-01-19T06:15:38.663Z,33.92
2023-01-19T06:16:38.767Z,32.59
2023-01-19T06:17:38.623Z,33.48
2023-01-19T06:18:38.741Z,33.94
2023-01-19T06:19:38.591Z,33.97
2023-01-19T06:20:38.580Z,31.18
2023-01-19T06:21:38.568Z,33.99
2023-01-19T06:22:38.528Z,32.62
2023-01-19T06:23:38.694Z,55.19
2023-01-19T06:24:38.507Z,154.37
2023-01-19T06:25:38.481Z,196.43
2023-01-19T06:26:38.486Z,166.95
2023-01-19T06:27:38.449Z,144.06
2023-01-19T06:28:38.719Z,136.29
2023-01-19T06:29:38.416Z,136.38
2023-01-19T06:30:38.481Z,132.54
2023-01-19T06:31:38.434Z,130.20
2023-01-19T06:32:38.377Z,126.95
2023-01-19T06:33:38.386Z,122.36
2023-01-19T06:34:38.351Z,121.25
2023-01-19T06:35:38.338Z,118.44
2023-01-19T06:36:38.333Z,118.17
2023-01-19T06:37:38.698Z,117.49
2023-01-19T06:38:38.301Z,117.53
2023-01-19T06:39:38.700Z,117.20
2023-01-19T06:40:38.261Z,115.02
2023-01-19T06:41:38.248Z,115.44
2023-01-19T06:42:38.268Z,117.49
2023-01-19T06:43:38.215Z,117.30
2023-01-19T06:44:38.701Z,118.23
2023-01-19T06:45:38.228Z,117.53
2023-01-19T06:46:38.216Z,115.99
2023-01-19T06:47:38.203Z,118.53
2023-01-19T06:48:38.154Z,121.64
2023-01-19T06:49:38.206Z,124.90
2023-01-19T06:50:38.161Z,124.74
2023-01-19T06:51:38.164Z,126.66
2023-01-19T06:52:38.135Z,127.68
2023-01-19T06:53:38.146Z,131.18
2023-01-19T06:54:38.605Z,137.55
2023-01-19T06:56:41.299Z,139.68
2023-01-19T06:57:38.084Z,139.82
2023-01-19T06:58:38.110Z,140.69
2023-01-19T06:59:39.318Z,141.44
2023-01-19T07:00:38.250Z,143.69
2023-01-19T07:01:38.251Z,145.13
2023-01-19T07:02:38.218Z,143.56
2023-01-19T07:03:38.210Z,145.21
2023-01-19T07:04:38.008Z,142.37
2023-01-19T07:05:37.984Z,142.77
2023-01-19T07:07:38.215Z,141.81
2023-01-19T07:08:37.947Z,142.30
2023-01-19T07:09:37.935Z,142.38
2023-01-19T07:11:26.759Z,142.35
2023-01-19T07:11:37.903Z,141.97
2023-01-19T07:13:38.127Z,141.98
2023-01-19T07:14:41.074Z,142.92
2023-01-19T07:15:37.855Z,141.74
2023-01-19T07:16:37.853Z,142.15
2023-01-19T07:17:38.224Z,141.88
2023-01-19T07:18:37.885Z,142.08
2023-01-19T07:19:37.773Z,141.33
2023-01-19T07:20:37.754Z,139.61
2023-01-19T07:21:37.753Z,139.12
2023-01-19T07:22:37.773Z,136.80
2023-01-19T07:23:37.692Z,137.23
2023-01-19T07:24:37.682Z,136.22
2023-01-19T07:25:37.651Z,135.00
2023-01-19T07:26:37.704Z,136.01
2023-01-19T07:27:37.686Z,134.19
2023-01-19T07:28:38.610Z,132.57
2023-01-19T07:29:37.754Z,134.17
2023-01-19T07:30:37.666Z,133.44
2023-01-19T07:31:37.671Z,134.75
2023-01-19T07:32:38.046Z,133.87
2023-01-19T07:33:37.527Z,132.63
2023-01-19T07:34:37.536Z,131.96
2023-01-19T07:35:37.472Z,133.15
2023-01-19T07:36:37.480Z,130.78
2023-01-19T07:37:37.793Z,130.11
2023-01-19T07:38:37.426Z,128.56
2023-01-19T07:39:37.980Z,130.11
2023-01-19T07:40:37.464Z,129.07
2023-01-19T07:42:09.132Z,129.00
2023-01-19T07:42:37.755Z,129.35
2023-01-19T07:43:38.201Z,129.24
2023-01-19T07:44:37.322Z,130.02
2023-01-19T07:45:37.892Z,131.19
2023-01-19T07:46:37.501Z,134.34
2023-01-19T07:47:37.329Z,130.79
2023-01-19T07:48:37.232Z,126.23
2023-01-19T07:49:37.199Z,128.20
2023-01-19T07:50:37.329Z,127.27
2023-01-19T07:51:37.186Z,125.19
2023-01-19T07:52:37.137Z,124.01
2023-01-19T07:53:53.036Z,127.90
2023-01-19T07:54:37.269Z,128.15
2023-01-19T07:55:37.049Z,128.47
2023-01-19T07:57:37.050Z,128.23
2023-01-19T07:59:38.167Z,128.24
2023-01-19T08:00:36.961Z,128.32
2023-01-19T08:01:39.177Z,125.01
2023-01-19T08:02:36.904Z,128.24
2023-01-19T08:03:37.265Z,125.70
2023-01-19T08:04:36.910Z,121.90
2023-01-19T08:05:37.819Z,119.12
2023-01-19T08:06:36.873Z,124.66
2023-01-19T08:07:36.786Z,119.55
2023-01-19T08:08:36.763Z,119.46
2023-01-19T08:09:36.854Z,115.51
2023-01-19T08:10:36.845Z,119.41
2023-01-19T08:11:36.678Z,119.19
2023-01-19T08:12:37.777Z,118.31
2023-01-19T08:13:36.779Z,117.19
2023-01-19T08:14:36.589Z,116.80
2023-01-19T08:15:36.612Z,117.63
2023-01-19T08:16:36.512Z,117.39
2023-01-19T08:17:36.767Z,113.76
2023-01-19T08:18:36.501Z,116.46
2023-01-19T08:19:36.473Z,114.61
2023-01-19T08:20:36.461Z,112.79
2023-01-19T08:21:36.757Z,112.62
2023-01-19T08:22:36.416Z,112.40
2023-01-19T08:23:36.836Z,114.84
2023-01-19T08:24:36.340Z,113.42
2023-01-19T08:25:36.320Z,111.07
2023-01-19T08:26:37.270Z,112.74
2023-01-19T08:27:36.245Z,114.00
2023-01-19T08:28:36.267Z,111.21
2023-01-19T08:29:37.180Z,108.40
2023-01-19T08:30:36.203Z,109.28
2023-01-19T08:31:37.260Z,109.96
2023-01-19T08:32:37.093Z,110.73
2023-01-19T08:33:36.072Z,109.88
2023-01-19T08:34:36.269Z,111.32
2023-01-19T08:35:39.256Z,109.07
2023-01-19T08:36:37.008Z,109.31
2023-01-19T08:37:35.960Z,109.58
2023-01-19T08:38:36.326Z,108.84
2023-01-19T08:39:35.897Z,112.76
2023-01-19T08:40:36.899Z,115.33
2023-01-19T08:41:35.880Z,123.57
2023-01-19T08:42:35.877Z,125.41
2023-01-19T08:43:36.281Z,123.61
2023-01-19T08:44:37.887Z,129.91
2023-01-19T08:45:36.775Z,130.63
2023-01-19T08:46:35.805Z,130.92
2023-01-19T08:47:35.812Z,133.90
2023-01-19T08:48:38.685Z,139.76
2023-01-19T08:49:35.810Z,131.34
2023-01-19T08:50:35.678Z,135.94
2023-01-19T08:51:35.633Z,145.63
2023-01-19T08:52:35.623Z,157.45
2023-01-19T08:53:35.588Z,177.49
2023-01-19T08:54:35.810Z,179.06
2023-01-19T08:55:35.543Z,183.71
2023-01-19T08:56:35.493Z,184.53
2023-01-19T08:57:35.501Z,188.87
2023-01-19T08:58:35.445Z,193.97
2023-01-19T08:59:35.757Z,171.91
2023-01-19T09:00:35.391Z,152.22
2023-01-19T09:01:35.436Z,146.24
2023-01-19T09:02:35.883Z,166.94
2023-01-19T09:03:35.322Z,182.51
2023-01-19T09:04:35.751Z,184.68
2023-01-19T09:05:35.275Z,182.64
2023-01-19T09:06:35.257Z,179.08
2023-01-19T09:07:35.765Z,178.90
2023-01-19T09:08:35.210Z,179.82
2023-01-19T09:09:35.252Z,181.78
2023-01-19T09:10:35.732Z,179.59
2023-01-19T09:11:35.170Z,184.22
2023-01-19T09:12:35.253Z,185.47
2023-01-19T09:13:35.087Z,187.92
2023-01-19T09:14:35.261Z,191.92
2023-01-19T09:15:35.048Z,192.91
2023-01-19T09:16:35.016Z,193.19
2023-01-19T09:17:35.292Z,197.31
2023-01-19T09:18:34.962Z,199.99
2023-01-19T09:19:35.281Z,201.41
2023-01-19T09:20:34.920Z,203.21
2023-01-19T09:21:34.897Z,204.36
2023-01-19T09:22:35.290Z,209.76
2023-01-19T09:23:34.846Z,210.08
2023-01-19T09:24:34.815Z,213.98
2023-01-19T09:25:34.803Z,217.46
2023-01-19T09:26:34.854Z,219.42
2023-01-19T09:27:34.847Z,223.21
2023-01-19T09:28:34.746Z,223.59
2023-01-19T09:29:34.689Z,226.31
2023-01-19T09:30:34.707Z,227.99
2023-01-19T09:31:34.691Z,232.07
2023-01-19T09:32:34.606Z,234.42
2023-01-19T09:33:34.573Z,234.12
2023-01-19T09:34:34.552Z,237.15
2023-01-19T09:35:34.770Z,230.55
2023-01-19T09:36:34.511Z,217.40
2023-01-19T09:37:34.465Z,145.55
2023-01-19T09:38:34.466Z,131.21
2023-01-19T09:39:34.512Z,125.41
2023-01-19T09:40:35.758Z,116.51
2023-01-19T09:41:34.408Z,124.58
2023-01-19T09:42:34.421Z,133.97
2023-01-19T09:43:34.391Z,131.56
2023-01-19T09:44:34.407Z,127.14
2023-01-19T09:45:34.775Z,122.38
2023-01-19T09:46:35.379Z,118.23
2023-01-19T09:47:34.772Z,108.81
2023-01-19T09:48:34.350Z,85.10
2023-01-19T09:49:34.333Z,87.02
2023-01-19T09:50:34.331Z,97.23
2023-01-19T09:51:34.334Z,92.48
2023-01-19T09:52:34.765Z,86.61
2023-01-19T09:53:34.279Z,85.47
2023-01-19T09:54:34.273Z,90.95
2023-01-19T09:55:34.250Z,100.65
2023-01-19T09:56:34.234Z,103.71
2023-01-19T09:57:34.271Z,102.28
2023-01-19T09:58:34.225Z,99.35
2023-01-19T09:59:34.193Z,102.34
2023-01-19T10:00:34.330Z,102.17
2023-01-19T10:01:35.256Z,105.84
2023-01-19T10:02:34.263Z,108.25
2023-01-19T10:03:34.138Z,112.47
2023-01-19T10:04:34.101Z,115.43
2023-01-19T10:05:34.354Z,114.98
2023-01-19T10:06:34.313Z,120.22
2023-01-19T10:07:34.068Z,122.89
2023-01-19T10:08:34.031Z,125.92
2023-01-19T10:09:34.009Z,128.47
2023-01-19T10:10:34.274Z,131.50
2023-01-19T10:11:42.023Z,133.88
2023-01-19T10:12:33.964Z,134.38
2023-01-19T10:13:33.950Z,136.03
2023-01-19T10:14:33.946Z,138.28
2023-01-19T10:15:34.322Z,144.10
2023-01-19T10:16:33.903Z,151.10
2023-01-19T10:17:33.847Z,153.69
2023-01-19T10:18:33.830Z,154.83
2023-01-19T10:19:33.803Z,159.66
2023-01-19T10:20:33.784Z,159.93
2023-01-19T10:21:33.804Z,160.12
2023-01-19T10:22:33.751Z,166.04
2023-01-19T10:23:33.700Z,167.87
2023-01-19T10:24:33.662Z,166.63
2023-01-19T10:25:33.713Z,168.96
2023-01-19T10:26:33.782Z,174.50
2023-01-19T10:27:33.623Z,176.79
2023-01-19T10:28:33.557Z,177.56
2023-01-19T10:29:33.525Z,180.32
2023-01-19T10:30:33.561Z,181.06
2023-01-19T10:31:33.987Z,181.36
2023-01-19T10:32:33.441Z,174.00
2023-01-19T10:33:33.420Z,109.19
2023-01-19T10:34:33.439Z,111.45
2023-01-19T10:35:33.381Z,114.33
2023-01-19T10:36:33.810Z,122.62
2023-01-19T10:37:33.371Z,108.46
2023-01-19T10:38:33.398Z,118.33
2023-01-19T10:39:37.356Z,126.03
2023-01-19T10:40:33.794Z,126.54
2023-01-19T10:41:33.284Z,126.42
2023-01-19T10:42:33.260Z,126.98
2023-01-19T10:43:33.251Z,127.69
2023-01-19T10:44:33.227Z,132.47
2023-01-19T10:45:34.886Z,138.00
2023-01-19T10:46:33.343Z,126.83
2023-01-19T10:47:33.165Z,129.32
2023-01-19T10:48:33.153Z,134.01
2023-01-19T10:49:33.311Z,142.37
2023-01-19T10:50:33.344Z,153.79
2023-01-19T10:51:33.133Z,160.34
2023-01-19T10:52:33.064Z,161.84
2023-01-19T10:53:33.006Z,164.40
2023-01-19T10:54:32.985Z,167.52
2023-01-19T10:55:33.013Z,172.53
2023-01-19T10:56:32.936Z,172.20
2023-01-19T10:57:32.936Z,174.95
2023-01-19T10:58:32.881Z,179.43
2023-01-19T10:59:33.332Z,179.15
2023-01-19T11:00:32.854Z,182.86
2023-01-19T11:01:33.408Z,186.17
2023-01-19T11:02:33.090Z,191.51
2023-01-19T11:03:32.797Z,192.68
2023-01-19T11:04:32.813Z,194.68
2023-01-19T11:05:32.713Z,198.75
2023-01-19T11:06:32.795Z,199.90
2023-01-19T11:07:32.668Z,201.78
2023-01-19T11:08:32.623Z,206.37
2023-01-19T11:09:32.603Z,206.65
2023-01-19T11:10:32.573Z,211.46
2023-01-19T11:11:32.803Z,210.43
2023-01-19T11:12:32.692Z,212.28
2023-01-19T11:13:32.544Z,217.81
2023-01-19T11:14:32.453Z,215.42
2023-01-19T11:15:32.437Z,219.94
2023-01-19T11:16:33.378Z,219.98
2023-01-19T11:17:32.369Z,218.61
2023-01-19T11:18:32.420Z,228.24
2023-01-19T11:19:32.304Z,231.74
2023-01-19T11:20:32.269Z,227.14
2023-01-19T11:21:32.304Z,224.00
2023-01-19T11:22:32.213Z,199.10
2023-01-19T11:23:32.189Z,185.42
2023-01-19T11:24:32.164Z,171.43
2023-01-19T11:25:32.139Z,160.36
2023-01-19T11:26:32.305Z,151.28
2023-01-19T11:27:32.609Z,137.76
2023-01-19T11:28:32.070Z,133.46
2023-01-19T11:29:32.054Z,124.15
2023-01-19T11:30:32.030Z,114.64
2023-01-19T11:31:32.351Z,107.45
2023-01-19T11:32:31.971Z,99.64
2023-01-19T11:33:32.080Z,98.02
2023-01-19T11:34:32.166Z,86.75
2023-01-19T11:35:32.417Z,86.70
2023-01-19T11:36:32.534Z,80.98
2023-01-19T11:37:32.315Z,75.63
2023-01-19T11:38:32.164Z,73.18
2023-01-19T11:39:32.202Z,74.95
2023-01-19T11:40:31.823Z,66.57
2023-01-19T11:41:31.828Z,64.21
2023-01-19T11:42:32.321Z,56.63
2023-01-19T11:43:43.541Z,52.44
2023-01-19T11:44:31.772Z,53.03
2023-01-19T11:45:31.857Z,53.66
2023-01-19T11:46:31.738Z,53.94
2023-01-19T11:47:31.756Z,51.98
2023-01-19T11:48:31.720Z,48.43
2023-01-19T11:49:31.817Z,47.37
2023-01-19T11:50:31.801Z,23.57
2023-01-19T11:51:31.699Z,31.24
2023-01-19T11:52:31.708Z,31.17
2023-01-19T11:53:31.738Z,32.68
2023-01-19T11:54:31.708Z,29.41
2023-01-19T11:55:31.698Z,25.00
2023-01-19T11:56:31.700Z,27.70
2023-01-19T11:57:31.705Z,40.93
2023-01-19T11:58:31.707Z,22.20
2023-01-19T11:59:31.700Z,25.00
2023-01-19T12:00:31.693Z,32.78
2023-01-19T12:01:31.699Z,36.07
2023-01-19T12:02:31.844Z,40.10
2023-01-19T12:03:31.796Z,43.37
2023-01-19T12:04:31.689Z,45.34
2023-01-19T12:05:31.683Z,49.23
2023-01-19T12:06:31.690Z,41.77
2023-01-19T12:07:31.874Z,59.12
2023-01-19T12:08:31.651Z,64.72
2023-01-19T12:09:31.654Z,64.77
2023-01-19T12:10:31.652Z,68.18
2023-01-19T12:11:31.674Z,69.51
2023-01-19T12:12:31.839Z,77.02
2023-01-19T12:13:31.609Z,80.44
2023-01-19T12:14:31.594Z,80.28
2023-01-19T12:15:31.588Z,78.60
2023-01-19T12:16:31.593Z,88.48
2023-01-19T12:17:31.820Z,92.13
2023-01-19T12:18:31.556Z,97.76
2023-01-19T12:19:31.537Z,104.66
2023-01-19T12:20:31.512Z,110.46
2023-01-19T12:21:31.490Z,117.53
2023-01-19T12:22:31.510Z,117.89
2023-01-19T12:23:31.479Z,125.77
2023-01-19T12:24:31.486Z,121.04
2023-01-19T12:25:31.435Z,127.34
2023-01-19T12:26:31.416Z,127.45
2023-01-19T12:27:31.392Z,127.64
2023-01-19T12:28:31.424Z,129.98
2023-01-19T12:29:31.359Z,131.54
2023-01-19T12:30:31.410Z,131.68
2023-01-19T12:31:31.365Z,132.99
2023-01-19T12:32:31.328Z,128.17
2023-01-19T12:33:31.264Z,131.78
2023-01-19T12:34:31.259Z,133.61
2023-01-19T12:35:31.204Z,133.57
2023-01-19T12:36:31.191Z,136.19
2023-01-19T12:37:31.424Z,133.81
2023-01-19T12:38:31.217Z,132.17
2023-01-19T12:39:31.126Z,133.30
2023-01-19T12:40:31.107Z,132.34
2023-01-19T12:41:31.084Z,134.96
2023-01-19T12:42:31.331Z,131.58
2023-01-19T12:43:31.051Z,131.55
2023-01-19T12:44:31.039Z,133.84
2023-01-19T12:45:31.021Z,133.09
2023-01-19T12:46:31.080Z,134.35
2023-01-19T12:47:30.982Z,133.83
2023-01-19T12:48:30.977Z,135.22
2023-01-19T12:49:31.339Z,133.02
2023-01-19T12:50:30.935Z,132.87
2023-01-19T12:51:30.932Z,134.02
2023-01-19T12:52:30.983Z,133.22
2023-01-19T12:53:30.893Z,133.26
2023-01-19T12:54:31.357Z,134.62
2023-01-19T12:55:30.851Z,131.40
2023-01-19T12:56:30.838Z,132.92
2023-01-19T12:57:30.808Z,131.74
2023-01-19T12:58:30.835Z,131.24
2023-01-19T12:59:30.773Z,132.43
2023-01-19T13:00:30.756Z,131.63
2023-01-19T13:01:30.859Z,131.63
2023-01-19T13:02:30.776Z,132.95
2023-01-19T13:03:29.833Z,131.90
2023-01-19T13:04:30.691Z,133.59
2023-01-19T13:05:32.688Z,131.22
2023-01-19T13:06:30.844Z,131.45
2023-01-19T13:07:30.656Z,132.00
2023-01-19T13:08:30.841Z,131.88
2023-01-19T13:09:30.592Z,132.54
2023-01-19T13:10:30.596Z,134.51
2023-01-19T13:11:34.441Z,133.39
2023-01-19T13:12:30.531Z,133.85
2023-01-19T13:13:30.836Z,133.82
2023-01-19T13:14:30.839Z,133.18
2023-01-19T13:15:30.521Z,132.47
2023-01-19T13:16:30.837Z,133.69
2023-01-19T13:17:30.437Z,133.21
2023-01-19T13:18:30.838Z,133.19
2023-01-19T13:19:30.670Z,134.17
2023-01-19T13:20:30.371Z,132.74
2023-01-19T13:21:30.407Z,132.20
2023-01-19T13:22:30.839Z,130.08
2023-01-19T13:23:30.318Z,131.27
2023-01-19T13:24:30.300Z,133.09
2023-01-19T13:25:30.276Z,130.32
2023-01-19T13:26:30.466Z,130.26
2023-01-19T13:27:30.238Z,130.54
2023-01-19T13:28:31.210Z,131.87
2023-01-19T13:29:30.244Z,127.78
2023-01-19T13:30:30.233Z,131.84
2023-01-19T13:31:30.388Z,131.15
2023-01-19T13:32:30.162Z,129.58